createdAt,value
2022-07-30T00:00:57.602Z,27.29
2022-07-30T00:03:30.102Z,27.26
2022-07-30T00:06:02.821Z,27.26
2022-07-30T00:08:35.361Z,27.26
2022-07-30T00:11:08.073Z,27.26
2022-07-30T00:13:40.579Z,27.27
2022-07-30T00:16:13.395Z,27.24
2022-07-30T00:18:46.116Z,27.17
2022-07-30T00:21:20.366Z,27.11
2022-07-30T00:24:09.962Z,27.07
2022-07-30T00:26:42.882Z,27.05
2022-07-30T00:29:15.454Z,27.06
2022-07-30T00:31:47.993Z,27.07
2022-07-30T00:34:20.460Z,27.09
2022-07-30T00:36:53.084Z,27.11
2022-07-30T00:39:25.667Z,27.11
2022-07-30T00:42:00.861Z,27.10
2022-07-30T00:44:33.377Z,27.09
2022-07-30T00:47:06.347Z,27.08
2022-07-30T00:49:43.931Z,27.05
2022-07-30T00:52:17.072Z,27.00
2022-07-30T00:54:49.605Z,26.97
2022-07-30T00:57:22.077Z,26.94
2022-07-30T00:59:55.929Z,26.94
2022-07-30T01:02:28.652Z,26.97
2022-07-30T01:05:01.237Z,26.95
2022-07-30T01:07:34.007Z,26.93
2022-07-30T01:10:08.566Z,26.94
2022-07-30T01:12:42.339Z,26.94
2022-07-30T01:15:15.095Z,26.93
2022-07-30T01:17:52.996Z,26.92
2022-07-30T01:20:28.644Z,26.90
2022-07-30T01:23:09.775Z,26.90
2022-07-30T01:25:55.600Z,26.91
2022-07-30T01:28:34.166Z,26.90
2022-07-30T01:31:08.463Z,26.89
2022-07-30T01:33:44.454Z,26.90
2022-07-30T01:36:19.710Z,26.89
2022-07-30T01:38:54.381Z,26.91
2022-07-30T01:41:30.956Z,26.93
2022-07-30T01:44:04.665Z,26.95
2022-07-30T01:46:38.700Z,26.97
2022-07-30T01:49:13.141Z,26.96
2022-07-30T01:51:49.253Z,26.93
2022-07-30T01:54:23.054Z,26.94
2022-07-30T01:57:10.955Z,26.96
2022-07-30T01:59:48.247Z,26.95
2022-07-30T02:02:21.054Z,26.92
2022-07-30T02:04:53.674Z,26.89
2022-07-30T02:07:34.045Z,26.90
2022-07-30T02:10:12.404Z,26.91
2022-07-30T02:12:53.928Z,26.91
2022-07-30T02:15:31.562Z,26.88
2022-07-30T02:18:09.630Z,26.88
2022-07-30T02:20:49.530Z,26.86
2022-07-30T02:23:25.138Z,26.84
2022-07-30T02:26:01.089Z,26.81
2022-07-30T02:28:36.260Z,26.81
2022-07-30T02:31:17.098Z,26.82
2022-07-30T02:33:54.272Z,26.80
2022-07-30T02:36:28.210Z,26.73
2022-07-30T02:39:03.553Z,26.65
2022-07-30T02:41:37.489Z,26.63
2022-07-30T02:44:11.497Z,26.61
2022-07-30T02:46:44.686Z,26.64
2022-07-30T02:49:19.957Z,26.66
2022-07-30T02:51:53.191Z,26.67
2022-07-30T02:54:31.318Z,26.68
2022-07-30T02:57:05.555Z,26.69
2022-07-30T02:59:41.356Z,26.68
2022-07-30T03:02:29.102Z,26.67
2022-07-30T03:05:12.258Z,26.67
2022-07-30T03:07:46.971Z,26.64
2022-07-30T03:10:20.224Z,26.62
2022-07-30T03:12:54.261Z,26.61
2022-07-30T03:15:27.875Z,26.59
2022-07-30T03:18:02.218Z,26.59
2022-07-30T03:20:37.631Z,26.61
2022-07-30T03:23:13.169Z,26.63
2022-07-30T03:25:48.021Z,26.61
2022-07-30T03:28:23.515Z,26.58
2022-07-30T03:30:56.637Z,26.58
2022-07-30T03:33:38.818Z,26.58
2022-07-30T03:36:13.903Z,26.54
2022-07-30T03:38:48.860Z,26.54
2022-07-30T03:41:22.734Z,26.56
2022-07-30T03:43:56.813Z,26.58
2022-07-30T03:46:30.569Z,26.59
2022-07-30T03:49:04.237Z,26.61
2022-07-30T03:51:38.271Z,26.63
2022-07-30T03:54:13.696Z,26.64
2022-07-30T03:56:46.887Z,26.61
2022-07-30T03:59:19.470Z,26.59
2022-07-30T04:01:55.817Z,26.59
2022-07-30T04:04:36.550Z,26.60
2022-07-30T04:07:09.285Z,26.63
2022-07-30T04:09:42.160Z,26.65
2022-07-30T04:12:15.124Z,26.67
2022-07-30T04:14:51.084Z,26.69
2022-07-30T04:17:27.484Z,26.71
2022-07-30T04:20:07.563Z,26.70
2022-07-30T04:22:41.754Z,26.68
2022-07-30T04:25:24.198Z,26.68
2022-07-30T04:28:03.688Z,26.66
2022-07-30T04:30:37.082Z,26.65
2022-07-30T04:33:10.599Z,26.64
2022-07-30T04:35:51.114Z,26.66
2022-07-30T04:38:25.816Z,26.62
2022-07-30T04:40:58.296Z,26.60
2022-07-30T04:43:30.737Z,26.56
2022-07-30T04:46:03.448Z,26.58
2022-07-30T04:48:35.901Z,26.58
2022-07-30T04:51:14.225Z,26.58
2022-07-30T04:53:48.281Z,26.60
2022-07-30T04:56:22.146Z,26.61
2022-07-30T04:58:56.052Z,26.65
2022-07-30T05:01:41.016Z,26.67
2022-07-30T05:04:14.277Z,26.74
2022-07-30T05:06:47.317Z,26.79
2022-07-30T05:09:21.514Z,26.83
2022-07-30T05:11:57.811Z,26.84
2022-07-30T05:14:30.420Z,26.87
2022-07-30T05:17:03.428Z,26.90
2022-07-30T05:19:36.362Z,26.92
2022-07-30T05:22:08.881Z,26.96
2022-07-30T05:24:46.928Z,27.02
2022-07-30T05:27:22.323Z,27.07
2022-07-30T05:30:00.436Z,27.12
2022-07-30T05:32:33.251Z,27.16
2022-07-30T05:35:06.068Z,27.19
2022-07-30T05:37:38.581Z,27.23
2022-07-30T05:40:13.173Z,27.27
2022-07-30T05:42:46.406Z,27.32
2022-07-30T05:45:19.399Z,27.37
2022-07-30T05:47:51.961Z,27.41
2022-07-30T05:50:24.634Z,27.45
2022-07-30T05:52:58.689Z,27.50
2022-07-30T05:55:31.153Z,27.55
2022-07-30T05:58:08.014Z,27.58
2022-07-30T06:00:41.184Z,27.60
2022-07-30T06:03:14.082Z,27.64
2022-07-30T06:05:46.921Z,27.69
2022-07-30T06:08:19.450Z,27.74
2022-07-30T06:10:51.854Z,27.75
2022-07-30T06:13:25.178Z,27.75
2022-07-30T06:15:57.779Z,27.75
2022-07-30T06:18:30.605Z,27.77
2022-07-30T06:21:03.185Z,27.77
2022-07-30T06:23:38.496Z,27.70
2022-07-30T06:26:11.391Z,27.67
2022-07-30T06:28:43.807Z,27.67
2022-07-30T06:31:16.512Z,27.69
2022-07-30T06:33:52.763Z,27.70
2022-07-30T06:36:25.271Z,27.70
2022-07-30T06:38:57.860Z,27.69
2022-07-30T06:41:30.519Z,27.71
2022-07-30T06:44:03.168Z,27.74
2022-07-30T06:46:35.910Z,27.75
2022-07-30T06:49:08.541Z,27.76
2022-07-30T06:51:41.576Z,27.77
2022-07-30T06:54:16.013Z,27.77
2022-07-30T06:56:48.750Z,27.79
2022-07-30T06:59:22.090Z,27.81
2022-07-30T07:01:55.191Z,27.84
2022-07-30T07:04:28.307Z,27.84
2022-07-30T07:07:01.579Z,27.87
2022-07-30T07:09:45.177Z,27.88
2022-07-30T07:12:17.706Z,27.90
2022-07-30T07:14:50.230Z,27.91
2022-07-30T07:17:23.138Z,27.94
2022-07-30T07:20:01.336Z,27.97
2022-07-30T07:22:34.949Z,28.01
2022-07-30T07:25:08.807Z,28.06
2022-07-30T07:27:41.837Z,28.08
2022-07-30T07:30:15.431Z,28.12
2022-07-30T07:32:48.263Z,28.14
2022-07-30T07:35:20.998Z,28.16
2022-07-30T07:37:53.590Z,28.19
2022-07-30T07:40:26.675Z,28.20
2022-07-30T07:42:59.271Z,28.25
2022-07-30T07:45:32.084Z,28.28
2022-07-30T07:48:04.881Z,28.30
2022-07-30T07:50:37.850Z,28.32
2022-07-30T07:53:10.423Z,28.36
2022-07-30T07:55:43.002Z,28.40
2022-07-30T07:58:17.581Z,28.45
2022-07-30T08:00:58.168Z,28.50
2022-07-30T08:03:30.557Z,28.56
2022-07-30T08:06:06.326Z,28.60
2022-07-30T08:08:43.290Z,28.64
2022-07-30T08:11:16.905Z,28.69
2022-07-30T08:13:56.196Z,28.73
2022-07-30T08:16:29.411Z,28.77
2022-07-30T08:19:07.016Z,28.80
2022-07-30T08:21:39.809Z,28.85
2022-07-30T08:24:13.207Z,28.89
2022-07-30T08:26:46.097Z,28.94
2022-07-30T08:29:18.793Z,28.98
2022-07-30T08:31:51.758Z,29.03
2022-07-30T08:34:25.780Z,29.08
2022-07-30T08:36:58.642Z,29.12
2022-07-30T08:39:40.034Z,29.16
2022-07-30T08:42:14.990Z,29.19
2022-07-30T08:44:48.071Z,29.23
2022-07-30T08:47:23.057Z,29.27
2022-07-30T08:49:56.725Z,29.32
2022-07-30T08:52:36.988Z,29.40
2022-07-30T08:55:11.344Z,29.46
2022-07-30T08:57:44.780Z,29.52
2022-07-30T09:00:19.100Z,29.56
2022-07-30T09:03:44.329Z,29.60
2022-07-30T09:06:18.396Z,29.69
2022-07-30T09:08:50.918Z,29.75
2022-07-30T09:11:24.053Z,29.79
2022-07-30T09:14:08.792Z,29.81
2022-07-30T09:16:44.311Z,29.85
2022-07-30T09:19:21.879Z,29.92
2022-07-30T09:22:02.985Z,30.03
2022-07-30T09:24:44.642Z,30.12
2022-07-30T09:27:17.353Z,30.22
2022-07-30T09:30:00.398Z,30.31
2022-07-30T09:32:50.820Z,30.40
2022-07-30T09:35:23.967Z,30.45
2022-07-30T09:38:06.507Z,30.50
2022-07-30T09:40:42.866Z,30.52
2022-07-30T09:43:15.826Z,30.56
2022-07-30T09:45:57.979Z,30.64
2022-07-30T09:48:31.685Z,30.71
2022-07-30T09:51:04.582Z,30.83
2022-07-30T09:53:38.050Z,30.92
2022-07-30T09:56:27.704Z,30.95
2022-07-30T09:59:02.938Z,30.99
2022-07-30T10:01:59.197Z,31.08
2022-07-30T10:04:34.532Z,31.18
2022-07-30T10:07:25.290Z,31.21
2022-07-30T10:10:02.618Z,31.22
2022-07-30T10:12:41.058Z,31.23
2022-07-30T10:15:14.979Z,31.31
2022-07-30T10:17:48.679Z,31.39
2022-07-30T10:20:21.736Z,31.50
2022-07-30T10:22:54.305Z,31.60
2022-07-30T10:25:28.444Z,31.66
2022-07-30T10:28:03.313Z,31.73
2022-07-30T10:30:36.565Z,31.76
2022-07-30T10:33:36.438Z,31.81
2022-07-30T10:36:05.208Z,31.90
2022-07-30T10:38:41.612Z,32.01
2022-07-30T10:41:42.829Z,32.07
2022-07-30T10:44:57.862Z,32.14
2022-07-30T10:47:33.556Z,32.20
2022-07-30T10:50:12.439Z,32.27
2022-07-30T10:52:53.434Z,32.36
2022-07-30T10:55:36.550Z,32.43
2022-07-30T10:58:15.577Z,32.49
2022-07-30T11:01:01.907Z,32.52
2022-07-30T11:03:41.070Z,32.54
2022-07-30T11:06:30.853Z,32.49
2022-07-30T11:09:03.664Z,32.44
2022-07-30T11:12:16.323Z,32.46
2022-07-30T11:15:07.220Z,32.57
2022-07-30T11:18:12.881Z,32.60
2022-07-30T11:21:15.331Z,32.58
2022-07-30T11:23:49.485Z,32.66
2022-07-30T11:26:51.618Z,32.71
2022-07-30T11:29:50.519Z,32.72
2022-07-30T11:32:36.862Z,32.79
2022-07-30T11:35:22.990Z,32.83
2022-07-30T11:38:08.924Z,32.91
2022-07-30T11:41:02.347Z,33.03
2022-07-30T11:43:37.036Z,33.13
2022-07-30T11:46:10.939Z,33.20
2022-07-30T11:49:00.263Z,33.35
2022-07-30T11:51:43.742Z,33.45
2022-07-30T11:54:16.861Z,33.51
2022-07-30T11:57:04.286Z,33.61
2022-07-30T11:59:55.959Z,33.68
2022-07-30T12:02:31.369Z,33.81
2022-07-30T12:05:04.844Z,33.94
2022-07-30T12:07:37.186Z,34.02
2022-07-30T12:10:27.102Z,34.07
2022-07-30T12:13:15.292Z,34.19
2022-07-30T12:15:49.175Z,34.33
2022-07-30T12:18:29.582Z,34.43
2022-07-30T12:21:03.696Z,34.52
2022-07-30T12:23:36.678Z,34.63
2022-07-30T12:26:09.223Z,34.76
2022-07-30T12:28:41.679Z,34.89
2022-07-30T12:31:17.833Z,35.00
2022-07-30T12:33:50.339Z,35.09
2022-07-30T12:36:32.083Z,35.15
2022-07-30T12:39:06.812Z,35.18
2022-07-30T12:41:46.998Z,35.22
2022-07-30T12:44:42.442Z,35.36
2022-07-30T12:47:26.801Z,35.64
2022-07-30T12:50:01.638Z,35.90
2022-07-30T12:52:36.076Z,36.16
2022-07-30T12:55:12.595Z,36.43
2022-07-30T12:58:01.705Z,36.75
2022-07-30T13:00:52.950Z,37.15
2022-07-30T13:03:27.641Z,37.44
2022-07-30T13:06:00.629Z,37.61
2022-07-30T13:08:52.039Z,37.74
2022-07-30T13:11:26.049Z,37.98
2022-07-30T13:13:58.460Z,38.07
2022-07-30T13:16:35.011Z,38.17
2022-07-30T13:19:08.250Z,38.21
2022-07-30T13:21:42.974Z,38.14
2022-07-30T13:24:22.896Z,38.13
2022-07-30T13:26:55.394Z,38.13
2022-07-30T13:29:29.206Z,38.21
2022-07-30T13:32:01.496Z,38.37
2022-07-30T13:34:33.965Z,38.58
2022-07-30T13:37:06.583Z,38.61
2022-07-30T13:39:39.039Z,38.49
2022-07-30T13:42:11.394Z,38.49
2022-07-30T13:44:44.054Z,38.70
2022-07-30T13:47:19.293Z,39.03
2022-07-30T13:49:51.870Z,39.32
2022-07-30T13:52:24.165Z,39.52
2022-07-30T13:54:56.930Z,39.66
2022-07-30T13:57:29.309Z,39.81
2022-07-30T14:00:02.156Z,39.92
2022-07-30T14:02:34.647Z,40.04
2022-07-30T14:05:08.131Z,39.92
2022-07-30T14:07:41.095Z,39.69
2022-07-30T14:10:13.710Z,39.46
2022-07-30T14:12:46.192Z,39.55
2022-07-30T14:15:19.055Z,39.75
2022-07-30T14:17:56.069Z,39.85
2022-07-30T14:20:29.499Z,39.93
2022-07-30T14:23:01.876Z,40.09
2022-07-30T14:25:34.772Z,40.19
2022-07-30T14:28:07.551Z,40.26
2022-07-30T14:30:40.097Z,40.33
2022-07-30T14:33:12.850Z,40.37
2022-07-30T14:35:45.489Z,40.48
2022-07-30T14:38:17.726Z,40.66
2022-07-30T14:40:50.317Z,40.82
2022-07-30T14:43:25.094Z,40.92
2022-07-30T14:45:57.588Z,41.01
2022-07-30T14:48:30.119Z,41.00
2022-07-30T14:51:16.011Z,40.79
2022-07-30T14:53:52.197Z,40.72
2022-07-30T14:56:25.310Z,40.84
2022-07-30T14:58:58.868Z,40.89
2022-07-30T15:01:31.781Z,40.79
2022-07-30T15:06:41.246Z,40.93
2022-07-30T15:09:13.935Z,41.03
2022-07-30T15:14:40.016Z,41.11
2022-07-30T15:17:12.734Z,41.19
2022-07-30T15:19:50.375Z,41.25
2022-07-30T15:22:23.664Z,41.28
2022-07-30T15:24:56.163Z,41.31
2022-07-30T15:27:33.963Z,41.18
2022-07-30T15:30:09.040Z,41.17
2022-07-30T15:32:41.461Z,41.32
2022-07-30T15:35:14.328Z,41.35
2022-07-30T15:37:47.506Z,41.30
2022-07-30T15:40:20.248Z,41.15
2022-07-30T15:42:53.147Z,41.23
2022-07-30T15:45:25.771Z,41.28
2022-07-30T15:47:58.371Z,41.36
2022-07-30T15:50:30.712Z,41.40
2022-07-30T15:53:09.339Z,41.36
2022-07-30T15:55:46.973Z,41.32
2022-07-30T15:58:19.986Z,41.26
2022-07-30T16:00:52.479Z,41.19
2022-07-30T16:03:25.339Z,41.13
2022-07-30T16:05:58.005Z,41.03
2022-07-30T16:08:30.664Z,40.97
2022-07-30T16:11:04.578Z,40.89
2022-07-30T16:13:36.970Z,40.79
2022-07-30T16:16:09.601Z,40.65
2022-07-30T16:18:42.225Z,40.48
2022-07-30T16:21:14.943Z,40.31
2022-07-30T16:23:47.287Z,40.14
2022-07-30T16:26:20.099Z,39.93
2022-07-30T16:28:52.950Z,39.76
2022-07-30T16:31:25.892Z,39.57
2022-07-30T16:33:59.011Z,39.46
2022-07-30T16:36:31.520Z,39.33
2022-07-30T16:39:04.558Z,39.15
2022-07-30T16:41:37.040Z,38.93
2022-07-30T16:44:10.053Z,38.70
2022-07-30T16:46:42.766Z,38.47
2022-07-30T16:49:15.480Z,38.16
2022-07-30T16:51:47.878Z,37.87
2022-07-30T16:54:20.431Z,37.63
2022-07-30T16:56:53.132Z,37.39
2022-07-30T16:59:25.658Z,37.17
2022-07-30T17:01:58.291Z,36.92
2022-07-30T17:04:31.018Z,36.73
2022-07-30T17:07:03.449Z,36.45
2022-07-30T17:09:37.110Z,36.15
2022-07-30T17:12:12.215Z,35.84
2022-07-30T17:14:45.365Z,35.57
2022-07-30T17:17:18.065Z,35.41
2022-07-30T17:19:50.804Z,35.23
2022-07-30T17:22:23.653Z,35.06
2022-07-30T17:24:56.160Z,34.91
2022-07-30T17:27:31.794Z,34.77
2022-07-30T17:30:05.124Z,34.63
2022-07-30T17:32:37.621Z,34.49
2022-07-30T17:35:13.982Z,34.35
2022-07-30T17:37:46.620Z,34.20
2022-07-30T17:40:29.124Z,34.08
2022-07-30T17:43:08.045Z,33.95
2022-07-30T17:45:42.779Z,33.82
2022-07-30T17:48:15.171Z,33.67
2022-07-30T17:50:47.726Z,33.53
2022-07-30T17:53:20.148Z,33.40
2022-07-30T17:55:57.379Z,33.31
2022-07-30T17:58:32.131Z,33.22
2022-07-30T18:01:05.146Z,33.17
2022-07-30T18:03:37.784Z,33.11
2022-07-30T18:06:17.933Z,33.05
2022-07-30T18:08:50.807Z,33.02
2022-07-30T18:11:23.392Z,32.95
2022-07-30T18:13:56.950Z,32.88
2022-07-30T18:16:29.594Z,32.84
2022-07-30T18:19:02.010Z,32.79
2022-07-30T18:21:34.736Z,32.74
2022-07-30T18:24:12.987Z,32.70
2022-07-30T18:26:47.088Z,32.66
2022-07-30T18:29:20.981Z,32.63
2022-07-30T18:31:53.798Z,32.56
2022-07-30T18:35:17.698Z,32.49
2022-07-30T18:37:50.702Z,32.41
2022-07-30T18:40:24.611Z,32.37
2022-07-30T18:42:57.281Z,32.32
2022-07-30T18:45:35.239Z,32.27
2022-07-30T18:48:10.167Z,32.22
2022-07-30T18:50:42.863Z,32.18
2022-07-30T18:53:16.881Z,32.14
2022-07-30T18:55:49.216Z,32.11
2022-07-30T18:58:22.182Z,32.07
2022-07-30T19:00:57.007Z,32.02
2022-07-30T19:03:30.132Z,31.97
2022-07-30T19:06:02.449Z,31.91
2022-07-30T19:08:35.159Z,31.84
2022-07-30T19:11:07.474Z,31.78
2022-07-30T19:13:41.867Z,31.73
2022-07-30T19:16:14.427Z,31.69
2022-07-30T19:18:47.110Z,31.66
2022-07-30T19:21:19.587Z,31.64
2022-07-30T19:23:52.607Z,31.61
2022-07-30T19:26:27.127Z,31.58
2022-07-30T19:28:59.705Z,31.53
2022-07-30T19:31:32.443Z,31.49
2022-07-30T19:34:07.284Z,31.45
2022-07-30T19:36:40.089Z,31.41
2022-07-30T19:39:16.135Z,31.36
2022-07-30T19:41:54.537Z,31.32
2022-07-30T19:44:27.149Z,31.28
2022-07-30T19:47:00.110Z,31.23
2022-07-30T19:49:33.195Z,31.16
2022-07-30T19:52:23.664Z,31.07
2022-07-30T19:54:59.475Z,31.01
2022-07-30T19:57:53.112Z,30.94
2022-07-30T20:00:25.435Z,30.86
2022-07-30T20:02:58.671Z,30.80
2022-07-30T20:05:57.139Z,30.74
2022-07-30T20:08:26.342Z,30.67
2022-07-30T20:10:59.523Z,30.66
2022-07-30T20:13:44.105Z,30.64
2022-07-30T20:16:18.798Z,30.56
2022-07-30T20:18:54.824Z,30.51
2022-07-30T20:21:56.889Z,30.45
2022-07-30T20:24:21.113Z,30.42
2022-07-30T20:48:35.427Z,30.37
2022-07-30T20:51:09.481Z,30.33
2022-07-30T20:53:41.937Z,30.29
2022-07-30T20:56:19.281Z,30.24
2022-07-30T20:58:49.725Z,30.18
2022-07-30T21:01:51.138Z,30.11
2022-07-30T21:04:31.266Z,30.01
2022-07-30T21:07:08.142Z,29.97
2022-07-30T21:09:49.936Z,29.91
2022-07-30T21:12:32.868Z,29.85
2022-07-30T21:15:02.558Z,29.78
2022-07-30T21:17:38.512Z,29.73
2022-07-30T21:23:59.652Z,29.69
2022-07-30T21:26:33.209Z,29.68
2022-07-30T21:29:08.832Z,29.65
2022-07-30T21:32:00.521Z,29.57
2022-07-30T21:34:41.844Z,29.46
2022-07-30T21:37:18.710Z,29.39
2022-07-30T21:40:05.816Z,29.33
2022-07-30T21:42:57.102Z,29.25
2022-07-30T21:45:41.505Z,29.15
2022-07-30T21:48:28.886Z,29.06
2022-07-30T21:50:59.167Z,28.92
2022-07-30T21:53:45.926Z,28.83
2022-07-30T21:56:33.517Z,28.68
2022-07-30T21:59:10.356Z,28.51
2022-07-30T22:01:50.770Z,28.33
2022-07-30T22:04:27.362Z,28.12
2022-07-30T22:07:14.172Z,27.98
2022-07-30T22:09:48.817Z,27.81
2022-07-30T22:12:20.868Z,27.65
2022-07-30T22:14:56.167Z,27.51
2022-07-30T22:17:58.861Z,27.39
2022-07-30T22:20:37.401Z,27.27
2022-07-30T22:23:34.792Z,27.15
2022-07-30T22:26:09.626Z,27.01
2022-07-30T22:28:43.539Z,26.91
2022-07-30T22:31:21.430Z,26.81
2022-07-30T22:33:57.378Z,26.71
2022-07-30T22:36:31.690Z,26.58
2022-07-30T22:39:09.052Z,26.43
2022-07-30T22:41:46.477Z,26.32
2022-07-30T22:44:24.889Z,26.23
2022-07-30T22:46:58.309Z,26.16
2022-07-30T22:49:53.318Z,26.12
2022-07-30T22:52:23.026Z,26.06
2022-07-30T22:55:08.983Z,26.00
2022-07-30T22:57:46.524Z,25.91
2022-07-30T23:00:31.684Z,25.83
2022-07-30T23:03:23.659Z,25.80
2022-07-30T23:05:58.570Z,25.79
2022-07-30T23:08:43.413Z,25.80
2022-07-30T23:11:18.067Z,25.81
2022-07-30T23:14:00.496Z,25.84
2022-07-30T23:16:50.474Z,25.85
2022-07-30T23:19:25.808Z,25.89
2022-07-30T23:22:11.532Z,25.92
2022-07-30T23:25:03.284Z,25.96
2022-07-30T23:27:41.601Z,25.94
2022-07-30T23:30:20.511Z,25.98
2022-07-30T23:33:02.891Z,25.97
2022-07-30T23:35:55.122Z,25.91
2022-07-30T23:38:33.098Z,25.86
2022-07-30T23:41:03.568Z,25.79
2022-07-30T23:43:32.689Z,25.67
2022-07-30T23:46:02.409Z,25.54
2022-07-30T23:48:31.791Z,25.48
2022-07-30T23:51:00.925Z,25.49
2022-07-30T23:53:30.060Z,25.55
2022-07-30T23:55:58.978Z,25.63
2022-07-30T23:58:27.916Z,25.63
